sensor_id;sensor_type;location;lat;lon;timestamp;P1;durP1;ratioP1;P2;durP2;ratioP2
51216;SDS011;37283;49.760;8.648;2023-03-19T00:02:01;6.32;;;2.05;;
51216;SDS011;37283;49.760;8.648;2023-03-19T00:04:42;6.22;;;2.00;;
51216;SDS011;37283;49.760;8.648;2023-03-19T00:07:09;6.95;;;2.28;;
51216;SDS011;37283;49.760;8.648;2023-03-19T00:09:36;4.63;;;2.10;;
51216;SDS011;37283;49.760;8.648;2023-03-19T00:12:02;5.63;;;2.03;;
51216;SDS011;37283;49.760;8.648;2023-03-19T00:14:29;4.53;;;1.83;;
51216;SDS011;37283;49.760;8.648;2023-03-19T00:16:55;5.95;;;1.70;;
51216;SDS011;37283;49.760;8.648;2023-03-19T00:19:22;3.60;;;1.70;;
51216;SDS011;37283;49.760;8.648;2023-03-19T00:21:48;5.55;;;2.25;;
51216;SDS011;37283;49.760;8.648;2023-03-19T00:24:15;4.85;;;2.00;;
51216;SDS011;37283;49.760;8.648;2023-03-19T00:26:42;4.40;;;2.10;;
51216;SDS011;37283;49.760;8.648;2023-03-19T00:29:09;8.43;;;2.00;;
51216;SDS011;37283;49.760;8.648;2023-03-19T00:31:35;5.38;;;2.40;;
51216;SDS011;37283;49.760;8.648;2023-03-19T00:34:02;6.97;;;2.20;;
51216;SDS011;37283;49.760;8.648;2023-03-19T00:36:28;8.90;;;2.50;;
51216;SDS011;37283;49.760;8.648;2023-03-19T00:38:55;5.85;;;2.40;;
51216;SDS011;37283;49.760;8.648;2023-03-19T00:41:22;4.35;;;2.30;;
51216;SDS011;37283;49.760;8.648;2023-03-19T00:43:53;4.35;;;2.30;;
51216;SDS011;37283;49.760;8.648;2023-03-19T00:46:20;5.38;;;2.70;;
51216;SDS011;37283;49.760;8.648;2023-03-19T00:48:47;5.95;;;2.50;;
51216;SDS011;37283;49.760;8.648;2023-03-19T00:51:14;5.00;;;2.20;;
51216;SDS011;37283;49.760;8.648;2023-03-19T00:53:42;7.00;;;2.67;;
51216;SDS011;37283;49.760;8.648;2023-03-19T00:56:10;6.43;;;2.10;;
51216;SDS011;37283;49.760;8.648;2023-03-19T00:58:37;6.32;;;2.53;;
51216;SDS011;37283;49.760;8.648;2023-03-19T01:01:06;5.57;;;2.40;;
51216;SDS011;37283;49.760;8.648;2023-03-19T01:03:34;4.28;;;1.98;;
51216;SDS011;37283;49.760;8.648;2023-03-19T01:06:03;4.35;;;2.15;;
51216;SDS011;37283;49.760;8.648;2023-03-19T01:08:30;6.18;;;2.60;;
51216;SDS011;37283;49.760;8.648;2023-03-19T01:11:03;5.15;;;2.33;;
51216;SDS011;37283;49.760;8.648;2023-03-19T01:13:34;6.63;;;2.00;;
51216;SDS011;37283;49.760;8.648;2023-03-19T01:16:01;5.72;;;2.38;;
51216;SDS011;37283;49.760;8.648;2023-03-19T01:18:28;7.35;;;2.42;;
51216;SDS011;37283;49.760;8.648;2023-03-19T01:20:54;5.82;;;2.83;;
51216;SDS011;37283;49.760;8.648;2023-03-19T01:23:21;8.85;;;2.30;;
51216;SDS011;37283;49.760;8.648;2023-03-19T01:25:48;6.15;;;2.20;;
51216;SDS011;37283;49.760;8.648;2023-03-19T01:28:15;5.35;;;2.25;;
51216;SDS011;37283;49.760;8.648;2023-03-19T01:30:41;6.00;;;2.00;;
51216;SDS011;37283;49.760;8.648;2023-03-19T01:33:43;5.97;;;2.45;;
51216;SDS011;37283;49.760;8.648;2023-03-19T01:36:16;7.00;;;2.20;;
51216;SDS011;37283;49.760;8.648;2023-03-19T01:39:00;5.47;;;2.03;;
51216;SDS011;37283;49.760;8.648;2023-03-19T01:41:26;6.32;;;2.40;;
51216;SDS011;37283;49.760;8.648;2023-03-19T01:44:00;5.68;;;2.20;;
51216;SDS011;37283;49.760;8.648;2023-03-19T01:46:37;6.20;;;2.40;;
51216;SDS011;37283;49.760;8.648;2023-03-19T01:49:23;5.13;;;2.33;;
51216;SDS011;37283;49.760;8.648;2023-03-19T01:52:05;6.32;;;2.22;;
51216;SDS011;37283;49.760;8.648;2023-03-19T01:54:41;6.70;;;2.58;;
51216;SDS011;37283;49.760;8.648;2023-03-19T01:57:28;6.90;;;2.45;;
51216;SDS011;37283;49.760;8.648;2023-03-19T02:00:11;4.03;;;2.05;;
51216;SDS011;37283;49.760;8.648;2023-03-19T02:02:42;4.63;;;2.00;;
51216;SDS011;37283;49.760;8.648;2023-03-19T02:05:28;6.78;;;2.42;;
51216;SDS011;37283;49.760;8.648;2023-03-19T02:08:02;5.70;;;2.25;;
51216;SDS011;37283;49.760;8.648;2023-03-19T02:10:31;7.50;;;2.63;;
51216;SDS011;37283;49.760;8.648;2023-03-19T02:12:59;5.40;;;2.45;;
51216;SDS011;37283;49.760;8.648;2023-03-19T02:15:26;5.90;;;2.28;;
51216;SDS011;37283;49.760;8.648;2023-03-19T02:17:52;6.45;;;2.13;;
51216;SDS011;37283;49.760;8.648;2023-03-19T02:20:28;6.25;;;2.20;;
51216;SDS011;37283;49.760;8.648;2023-03-19T02:23:08;2.88;;;1.73;;
51216;SDS011;37283;49.760;8.648;2023-03-19T02:25:56;4.78;;;2.10;;
51216;SDS011;37283;49.760;8.648;2023-03-19T02:28:26;4.05;;;1.77;;
51216;SDS011;37283;49.760;8.648;2023-03-19T02:30:54;5.50;;;1.83;;
51216;SDS011;37283;49.760;8.648;2023-03-19T02:33:21;4.88;;;2.15;;
51216;SDS011;37283;49.760;8.648;2023-03-19T02:35:49;5.85;;;2.20;;
51216;SDS011;37283;49.760;8.648;2023-03-19T02:40:51;7.53;;;2.30;;
51216;SDS011;37283;49.760;8.648;2023-03-19T02:43:21;4.68;;;1.80;;
51216;SDS011;37283;49.760;8.648;2023-03-19T02:45:49;7.28;;;2.25;;
51216;SDS011;37283;49.760;8.648;2023-03-19T02:48:16;4.88;;;1.90;;
51216;SDS011;37283;49.760;8.648;2023-03-19T02:50:42;5.60;;;1.88;;
51216;SDS011;37283;49.760;8.648;2023-03-19T02:53:09;6.35;;;1.85;;
51216;SDS011;37283;49.760;8.648;2023-03-19T02:55:35;5.20;;;1.90;;
51216;SDS011;37283;49.760;8.648;2023-03-19T02:58:02;4.95;;;1.60;;
51216;SDS011;37283;49.760;8.648;2023-03-19T03:00:29;3.80;;;1.50;;
51216;SDS011;37283;49.760;8.648;2023-03-19T03:02:55;6.20;;;2.25;;
51216;SDS011;37283;49.760;8.648;2023-03-19T03:05:22;4.78;;;1.73;;
51216;SDS011;37283;49.760;8.648;2023-03-19T03:07:49;4.90;;;1.67;;
51216;SDS011;37283;49.760;8.648;2023-03-19T03:10:16;4.90;;;1.90;;
51216;SDS011;37283;49.760;8.648;2023-03-19T03:12:43;4.13;;;2.03;;
51216;SDS011;37283;49.760;8.648;2023-03-19T03:15:09;4.82;;;2.05;;
51216;SDS011;37283;49.760;8.648;2023-03-19T03:17:36;5.20;;;2.17;;
51216;SDS011;37283;49.760;8.648;2023-03-19T03:20:04;6.00;;;2.33;;
51216;SDS011;37283;49.760;8.648;2023-03-19T03:22:32;4.53;;;2.00;;
51216;SDS011;37283;49.760;8.648;2023-03-19T03:24:59;4.32;;;2.00;;
51216;SDS011;37283;49.760;8.648;2023-03-19T03:27:28;4.43;;;2.15;;
51216;SDS011;37283;49.760;8.648;2023-03-19T03:29:55;5.32;;;1.95;;
51216;SDS011;37283;49.760;8.648;2023-03-19T03:32:22;6.80;;;2.30;;
51216;SDS011;37283;49.760;8.648;2023-03-19T03:34:49;6.70;;;2.28;;
51216;SDS011;37283;49.760;8.648;2023-03-19T03:37:15;5.53;;;2.40;;
51216;SDS011;37283;49.760;8.648;2023-03-19T03:39:42;4.53;;;2.15;;
51216;SDS011;37283;49.760;8.648;2023-03-19T03:42:09;4.22;;;2.00;;
51216;SDS011;37283;49.760;8.648;2023-03-19T03:44:37;6.95;;;2.38;;
51216;SDS011;37283;49.760;8.648;2023-03-19T03:47:03;7.60;;;2.58;;
51216;SDS011;37283;49.760;8.648;2023-03-19T03:49:30;4.80;;;2.35;;
51216;SDS011;37283;49.760;8.648;2023-03-19T03:51:56;4.57;;;2.22;;
51216;SDS011;37283;49.760;8.648;2023-03-19T03:54:23;6.57;;;2.50;;
51216;SDS011;37283;49.760;8.648;2023-03-19T03:56:49;7.65;;;2.92;;
51216;SDS011;37283;49.760;8.648;2023-03-19T03:59:16;4.75;;;2.20;;
51216;SDS011;37283;49.760;8.648;2023-03-19T04:01:42;8.90;;;2.60;;
51216;SDS011;37283;49.760;8.648;2023-03-19T04:04:09;4.55;;;2.60;;
51216;SDS011;37283;49.760;8.648;2023-03-19T04:06:36;5.03;;;2.45;;
51216;SDS011;37283;49.760;8.648;2023-03-19T04:09:21;7.78;;;2.80;;
51216;SDS011;37283;49.760;8.648;2023-03-19T04:11:47;6.85;;;2.20;;
51216;SDS011;37283;49.760;8.648;2023-03-19T04:14:16;5.57;;;2.63;;
51216;SDS011;37283;49.760;8.648;2023-03-19T04:16:43;7.40;;;2.50;;
51216;SDS011;37283;49.760;8.648;2023-03-19T04:19:10;7.07;;;2.25;;
51216;SDS011;37283;49.760;8.648;2023-03-19T04:21:37;5.97;;;2.53;;
51216;SDS011;37283;49.760;8.648;2023-03-19T04:24:03;5.50;;;2.45;;
51216;SDS011;37283;49.760;8.648;2023-03-19T04:26:30;4.72;;;2.13;;
51216;SDS011;37283;49.760;8.648;2023-03-19T04:28:57;3.80;;;2.28;;
51216;SDS011;37283;49.760;8.648;2023-03-19T04:31:24;9.23;;;2.38;;
51216;SDS011;37283;49.760;8.648;2023-03-19T04:33:51;7.63;;;2.78;;
51216;SDS011;37283;49.760;8.648;2023-03-19T04:36:18;5.18;;;2.45;;
51216;SDS011;37283;49.760;8.648;2023-03-19T04:38:45;5.65;;;2.55;;
51216;SDS011;37283;49.760;8.648;2023-03-19T04:41:12;4.80;;;2.10;;
51216;SDS011;37283;49.760;8.648;2023-03-19T04:43:54;6.65;;;2.20;;
51216;SDS011;37283;49.760;8.648;2023-03-19T04:46:21;5.82;;;2.17;;
51216;SDS011;37283;49.760;8.648;2023-03-19T04:48:48;4.93;;;2.30;;
51216;SDS011;37283;49.760;8.648;2023-03-19T04:51:15;8.38;;;2.42;;
51216;SDS011;37283;49.760;8.648;2023-03-19T04:53:42;5.25;;;2.35;;
51216;SDS011;37283;49.760;8.648;2023-03-19T04:58:42;4.80;;;2.40;;
51216;SDS011;37283;49.760;8.648;2023-03-19T05:01:08;7.93;;;2.58;;
51216;SDS011;37283;49.760;8.648;2023-03-19T05:03:55;6.97;;;2.65;;
51216;SDS011;37283;49.760;8.648;2023-03-19T05:06:21;7.47;;;2.40;;
51216;SDS011;37283;49.760;8.648;2023-03-19T05:08:48;6.20;;;2.35;;
51216;SDS011;37283;49.760;8.648;2023-03-19T05:11:16;5.68;;;2.75;;
51216;SDS011;37283;49.760;8.648;2023-03-19T05:13:56;4.80;;;2.38;;
51216;SDS011;37283;49.760;8.648;2023-03-19T05:16:26;6.00;;;2.53;;
51216;SDS011;37283;49.760;8.648;2023-03-19T05:18:52;7.28;;;3.28;;
51216;SDS011;37283;49.760;8.648;2023-03-19T05:21:19;5.95;;;2.72;;
51216;SDS011;37283;49.760;8.648;2023-03-19T05:23:49;6.18;;;3.10;;
51216;SDS011;37283;49.760;8.648;2023-03-19T05:26:17;8.82;;;2.85;;
51216;SDS011;37283;49.760;8.648;2023-03-19T05:29:16;5.63;;;2.97;;
51216;SDS011;37283;49.760;8.648;2023-03-19T05:31:55;7.40;;;3.03;;
51216;SDS011;37283;49.760;8.648;2023-03-19T05:34:21;7.15;;;2.63;;
51216;SDS011;37283;49.760;8.648;2023-03-19T05:36:48;8.82;;;3.25;;
51216;SDS011;37283;49.760;8.648;2023-03-19T05:39:17;4.13;;;2.50;;
51216;SDS011;37283;49.760;8.648;2023-03-19T05:41:44;7.40;;;3.22;;
51216;SDS011;37283;49.760;8.648;2023-03-19T05:44:16;6.20;;;3.10;;
51216;SDS011;37283;49.760;8.648;2023-03-19T05:46:52;6.90;;;3.42;;
51216;SDS011;37283;49.760;8.648;2023-03-19T05:49:21;6.97;;;3.05;;
51216;SDS011;37283;49.760;8.648;2023-03-19T05:51:47;6.40;;;2.78;;
51216;SDS011;37283;49.760;8.648;2023-03-19T05:54:14;6.78;;;3.15;;
51216;SDS011;37283;49.760;8.648;2023-03-19T05:56:53;6.47;;;2.97;;
51216;SDS011;37283;49.760;8.648;2023-03-19T05:59:32;5.00;;;2.88;;
51216;SDS011;37283;49.760;8.648;2023-03-19T06:02:38;6.93;;;3.05;;
51216;SDS011;37283;49.760;8.648;2023-03-19T06:05:23;5.60;;;3.00;;
51216;SDS011;37283;49.760;8.648;2023-03-19T06:07:53;6.68;;;2.92;;
51216;SDS011;37283;49.760;8.648;2023-03-19T06:10:26;7.75;;;3.10;;
51216;SDS011;37283;49.760;8.648;2023-03-19T06:12:56;6.18;;;2.83;;
51216;SDS011;37283;49.760;8.648;2023-03-19T06:15:38;5.05;;;3.05;;
51216;SDS011;37283;49.760;8.648;2023-03-19T06:18:28;5.72;;;2.83;;
51216;SDS011;37283;49.760;8.648;2023-03-19T06:20:55;6.88;;;2.75;;
51216;SDS011;37283;49.760;8.648;2023-03-19T06:23:21;8.38;;;2.80;;
51216;SDS011;37283;49.760;8.648;2023-03-19T06:25:48;5.78;;;2.83;;
51216;SDS011;37283;49.760;8.648;2023-03-19T06:28:15;7.65;;;2.80;;
51216;SDS011;37283;49.760;8.648;2023-03-19T06:30:43;6.15;;;2.90;;
51216;SDS011;37283;49.760;8.648;2023-03-19T06:35:59;7.55;;;2.83;;
51216;SDS011;37283;49.760;8.648;2023-03-19T06:38:28;6.15;;;2.70;;
51216;SDS011;37283;49.760;8.648;2023-03-19T06:40:55;6.47;;;2.90;;
51216;SDS011;37283;49.760;8.648;2023-03-19T06:43:21;9.98;;;3.45;;
51216;SDS011;37283;49.760;8.648;2023-03-19T06:45:48;5.35;;;2.90;;
51216;SDS011;37283;49.760;8.648;2023-03-19T06:48:15;6.70;;;2.70;;
51216;SDS011;37283;49.760;8.648;2023-03-19T06:50:42;5.57;;;3.10;;
51216;SDS011;37283;49.760;8.648;2023-03-19T06:53:10;7.22;;;3.13;;
51216;SDS011;37283;49.760;8.648;2023-03-19T06:55:37;9.20;;;3.35;;
51216;SDS011;37283;49.760;8.648;2023-03-19T06:58:05;7.97;;;3.22;;
51216;SDS011;37283;49.760;8.648;2023-03-19T07:00:32;6.78;;;3.55;;
51216;SDS011;37283;49.760;8.648;2023-03-19T07:02:59;6.00;;;2.80;;
51216;SDS011;37283;49.760;8.648;2023-03-19T07:05:26;6.70;;;3.03;;
51216;SDS011;37283;49.760;8.648;2023-03-19T07:07:52;5.95;;;3.10;;
51216;SDS011;37283;49.760;8.648;2023-03-19T07:10:19;6.10;;;3.20;;
51216;SDS011;37283;49.760;8.648;2023-03-19T07:12:46;4.70;;;3.00;;
51216;SDS011;37283;49.760;8.648;2023-03-19T07:15:13;7.93;;;2.90;;
51216;SDS011;37283;49.760;8.648;2023-03-19T07:17:40;5.65;;;3.35;;
51216;SDS011;37283;49.760;8.648;2023-03-19T07:20:06;6.75;;;2.97;;
51216;SDS011;37283;49.760;8.648;2023-03-19T07:22:33;7.68;;;2.83;;
51216;SDS011;37283;49.760;8.648;2023-03-19T07:25:00;5.32;;;3.00;;
51216;SDS011;37283;49.760;8.648;2023-03-19T07:27:26;5.95;;;3.08;;
51216;SDS011;37283;49.760;8.648;2023-03-19T07:29:52;5.80;;;2.70;;
51216;SDS011;37283;49.760;8.648;2023-03-19T07:32:21;7.90;;;3.13;;
51216;SDS011;37283;49.760;8.648;2023-03-19T07:34:48;5.93;;;3.35;;
51216;SDS011;37283;49.760;8.648;2023-03-19T07:37:15;5.72;;;3.25;;
51216;SDS011;37283;49.760;8.648;2023-03-19T07:39:41;6.15;;;3.13;;
51216;SDS011;37283;49.760;8.648;2023-03-19T07:42:08;4.88;;;2.90;;
51216;SDS011;37283;49.760;8.648;2023-03-19T07:44:37;5.85;;;3.10;;
51216;SDS011;37283;49.760;8.648;2023-03-19T07:47:04;7.93;;;3.25;;
51216;SDS011;37283;49.760;8.648;2023-03-19T07:49:38;7.43;;;2.83;;
51216;SDS011;37283;49.760;8.648;2023-03-19T07:52:05;7.05;;;3.35;;
51216;SDS011;37283;49.760;8.648;2023-03-19T07:54:31;7.32;;;3.22;;
51216;SDS011;37283;49.760;8.648;2023-03-19T07:56:58;4.63;;;2.25;;
51216;SDS011;37283;49.760;8.648;2023-03-19T07:59:24;6.53;;;2.90;;
51216;SDS011;37283;49.760;8.648;2023-03-19T08:01:51;6.43;;;2.53;;
51216;SDS011;37283;49.760;8.648;2023-03-19T08:04:18;5.20;;;2.22;;
51216;SDS011;37283;49.760;8.648;2023-03-19T08:06:44;7.10;;;2.30;;
51216;SDS011;37283;49.760;8.648;2023-03-19T08:09:11;8.98;;;2.20;;
51216;SDS011;37283;49.760;8.648;2023-03-19T08:11:38;5.57;;;2.38;;
51216;SDS011;37283;49.760;8.648;2023-03-19T08:14:04;4.70;;;2.25;;
51216;SDS011;37283;49.760;8.648;2023-03-19T08:16:31;4.57;;;2.47;;
51216;SDS011;37283;49.760;8.648;2023-03-19T08:18:58;6.63;;;2.38;;
51216;SDS011;37283;49.760;8.648;2023-03-19T08:21:24;4.70;;;2.30;;
51216;SDS011;37283;49.760;8.648;2023-03-19T08:23:51;6.18;;;2.50;;
51216;SDS011;37283;49.760;8.648;2023-03-19T08:26:18;7.35;;;2.83;;
51216;SDS011;37283;49.760;8.648;2023-03-19T08:28:44;5.95;;;2.42;;
51216;SDS011;37283;49.760;8.648;2023-03-19T08:31:11;5.18;;;2.70;;
51216;SDS011;37283;49.760;8.648;2023-03-19T08:33:38;6.55;;;3.33;;
51216;SDS011;37283;49.760;8.648;2023-03-19T08:36:07;9.80;;;3.83;;
51216;SDS011;37283;49.760;8.648;2023-03-19T08:38:34;8.63;;;3.65;;
51216;SDS011;37283;49.760;8.648;2023-03-19T08:41:02;8.38;;;3.88;;
51216;SDS011;37283;49.760;8.648;2023-03-19T08:43:29;9.10;;;3.95;;
51216;SDS011;37283;49.760;8.648;2023-03-19T08:45:56;9.25;;;4.05;;
51216;SDS011;37283;49.760;8.648;2023-03-19T08:48:23;6.97;;;3.40;;
51216;SDS011;37283;49.760;8.648;2023-03-19T08:50:57;7.03;;;3.05;;
51216;SDS011;37283;49.760;8.648;2023-03-19T08:53:25;6.93;;;3.05;;
51216;SDS011;37283;49.760;8.648;2023-03-19T08:56:01;6.47;;;2.78;;
51216;SDS011;37283;49.760;8.648;2023-03-19T08:58:29;5.30;;;1.90;;
51216;SDS011;37283;49.760;8.648;2023-03-19T09:00:59;4.82;;;2.47;;
51216;SDS011;37283;49.760;8.648;2023-03-19T09:03:28;4.82;;;2.17;;
51216;SDS011;37283;49.760;8.648;2023-03-19T09:05:56;4.15;;;2.00;;
51216;SDS011;37283;49.760;8.648;2023-03-19T09:08:24;5.35;;;2.40;;
51216;SDS011;37283;49.760;8.648;2023-03-19T09:10:50;5.07;;;2.50;;
51216;SDS011;37283;49.760;8.648;2023-03-19T09:13:17;6.63;;;2.75;;
51216;SDS011;37283;49.760;8.648;2023-03-19T09:15:43;4.40;;;2.60;;
51216;SDS011;37283;49.760;8.648;2023-03-19T09:18:10;7.70;;;3.15;;
51216;SDS011;37283;49.760;8.648;2023-03-19T09:20:36;7.28;;;2.83;;
51216;SDS011;37283;49.760;8.648;2023-03-19T09:23:03;6.43;;;3.00;;
51216;SDS011;37283;49.760;8.648;2023-03-19T09:25:29;4.53;;;2.95;;
51216;SDS011;37283;49.760;8.648;2023-03-19T09:27:56;6.50;;;2.55;;
51216;SDS011;37283;49.760;8.648;2023-03-19T09:30:23;5.85;;;2.55;;
51216;SDS011;37283;49.760;8.648;2023-03-19T09:32:49;4.07;;;2.13;;
51216;SDS011;37283;49.760;8.648;2023-03-19T09:35:16;3.72;;;2.20;;
51216;SDS011;37283;49.760;8.648;2023-03-19T09:37:43;4.82;;;2.60;;
51216;SDS011;37283;49.760;8.648;2023-03-19T09:40:15;4.35;;;2.20;;
51216;SDS011;37283;49.760;8.648;2023-03-19T09:45:47;5.15;;;2.35;;
51216;SDS011;37283;49.760;8.648;2023-03-19T09:48:18;6.90;;;2.60;;
51216;SDS011;37283;49.760;8.648;2023-03-19T09:51:06;4.28;;;2.50;;
51216;SDS011;37283;49.760;8.648;2023-03-19T09:56:23;4.05;;;2.75;;
51216;SDS011;37283;49.760;8.648;2023-03-19T09:58:49;6.18;;;2.50;;
51216;SDS011;37283;49.760;8.648;2023-03-19T10:01:22;5.60;;;2.60;;
51216;SDS011;37283;49.760;8.648;2023-03-19T10:04:14;3.63;;;2.00;;
51216;SDS011;37283;49.760;8.648;2023-03-19T10:06:52;5.60;;;2.85;;
51216;SDS011;37283;49.760;8.648;2023-03-19T10:23:06;5.75;;;2.65;;
51216;SDS011;37283;49.760;8.648;2023-03-19T10:25:38;6.15;;;2.90;;
51216;SDS011;37283;49.760;8.648;2023-03-19T10:28:16;6.43;;;2.50;;
51216;SDS011;37283;49.760;8.648;2023-03-19T10:30:44;6.78;;;2.85;;
51216;SDS011;37283;49.760;8.648;2023-03-19T10:33:22;4.47;;;2.22;;
51216;SDS011;37283;49.760;8.648;2023-03-19T10:35:54;6.53;;;2.60;;
51216;SDS011;37283;49.760;8.648;2023-03-19T10:38:24;4.75;;;2.58;;
51216;SDS011;37283;49.760;8.648;2023-03-19T10:43:41;5.93;;;2.35;;
51216;SDS011;37283;49.760;8.648;2023-03-19T10:46:12;3.88;;;2.53;;
51216;SDS011;37283;49.760;8.648;2023-03-19T10:48:42;5.32;;;2.50;;
51216;SDS011;37283;49.760;8.648;2023-03-19T10:51:10;4.72;;;2.60;;
51216;SDS011;37283;49.760;8.648;2023-03-19T10:53:40;6.20;;;2.80;;
51216;SDS011;37283;49.760;8.648;2023-03-19T10:56:20;3.65;;;2.35;;
51216;SDS011;37283;49.760;8.648;2023-03-19T10:58:55;5.38;;;2.40;;
51216;SDS011;37283;49.760;8.648;2023-03-19T11:01:34;4.38;;;2.30;;
51216;SDS011;37283;49.760;8.648;2023-03-19T11:04:19;3.63;;;2.22;;
51216;SDS011;37283;49.760;8.648;2023-03-19T11:06:50;5.00;;;2.38;;
51216;SDS011;37283;49.760;8.648;2023-03-19T11:09:23;4.28;;;2.10;;
51216;SDS011;37283;49.760;8.648;2023-03-19T11:11:56;3.50;;;2.30;;
51216;SDS011;37283;49.760;8.648;2023-03-19T11:14:30;5.38;;;1.85;;
51216;SDS011;37283;49.760;8.648;2023-03-19T11:17:03;4.53;;;1.88;;
51216;SDS011;37283;49.760;8.648;2023-03-19T11:19:42;6.90;;;2.40;;
51216;SDS011;37283;49.760;8.648;2023-03-19T11:22:21;5.07;;;1.75;;
51216;SDS011;37283;49.760;8.648;2023-03-19T11:24:52;5.38;;;1.98;;
51216;SDS011;37283;49.760;8.648;2023-03-19T11:27:26;4.78;;;2.30;;
51216;SDS011;37283;49.760;8.648;2023-03-19T11:29:57;5.65;;;2.13;;
51216;SDS011;37283;49.760;8.648;2023-03-19T11:38:18;6.63;;;2.03;;
51216;SDS011;37283;49.760;8.648;2023-03-19T11:40:53;3.33;;;1.73;;
51216;SDS011;37283;49.760;8.648;2023-03-19T11:43:29;4.85;;;2.20;;
51216;SDS011;37283;49.760;8.648;2023-03-19T11:46:15;5.47;;;1.77;;
51216;SDS011;37283;49.760;8.648;2023-03-19T11:49:05;5.40;;;2.30;;
51216;SDS011;37283;49.760;8.648;2023-03-19T11:54:22;6.60;;;2.28;;
51216;SDS011;37283;49.760;8.648;2023-03-19T12:02:34;7.30;;;2.20;;
51216;SDS011;37283;49.760;8.648;2023-03-19T12:08:16;5.68;;;1.88;;
51216;SDS011;37283;49.760;8.648;2023-03-19T12:13:47;3.30;;;2.00;;
51216;SDS011;37283;49.760;8.648;2023-03-19T12:16:26;4.45;;;1.73;;
51216;SDS011;37283;49.760;8.648;2023-03-19T12:19:03;6.13;;;2.03;;
51216;SDS011;37283;49.760;8.648;2023-03-19T12:27:01;3.80;;;2.00;;
51216;SDS011;37283;49.760;8.648;2023-03-19T12:35:17;5.85;;;2.00;;
51216;SDS011;37283;49.760;8.648;2023-03-19T12:37:52;4.97;;;1.95;;
51216;SDS011;37283;49.760;8.648;2023-03-19T12:40:25;4.57;;;2.00;;
51216;SDS011;37283;49.760;8.648;2023-03-19T12:43:05;7.55;;;2.35;;
51216;SDS011;37283;49.760;8.648;2023-03-19T12:45:45;5.10;;;1.85;;
51216;SDS011;37283;49.760;8.648;2023-03-19T12:48:15;4.40;;;1.73;;
51216;SDS011;37283;49.760;8.648;2023-03-19T12:50:44;3.60;;;2.10;;
51216;SDS011;37283;49.760;8.648;2023-03-19T12:59:15;4.88;;;2.35;;
51216;SDS011;37283;49.760;8.648;2023-03-19T13:01:48;5.30;;;3.30;;
51216;SDS011;37283;49.760;8.648;2023-03-19T13:04:20;6.68;;;2.92;;
51216;SDS011;37283;49.760;8.648;2023-03-19T13:06:54;7.28;;;2.95;;
51216;SDS011;37283;49.760;8.648;2023-03-19T13:09:32;5.43;;;2.78;;
51216;SDS011;37283;49.760;8.648;2023-03-19T13:12:22;5.28;;;3.05;;
51216;SDS011;37283;49.760;8.648;2023-03-19T13:20:23;3.88;;;2.20;;
51216;SDS011;37283;49.760;8.648;2023-03-19T13:22:54;3.80;;;2.15;;
51216;SDS011;37283;49.760;8.648;2023-03-19T13:25:24;3.65;;;2.00;;
51216;SDS011;37283;49.760;8.648;2023-03-19T13:27:56;2.65;;;1.83;;
51216;SDS011;37283;49.760;8.648;2023-03-19T13:30:23;2.85;;;1.73;;
51216;SDS011;37283;49.760;8.648;2023-03-19T13:32:52;5.00;;;1.90;;
51216;SDS011;37283;49.760;8.648;2023-03-19T13:40:48;6.82;;;3.50;;
51216;SDS011;37283;49.760;8.648;2023-03-19T13:56:54;14.57;;;6.95;;
51216;SDS011;37283;49.760;8.648;2023-03-19T13:59:23;9.23;;;4.40;;
51216;SDS011;37283;49.760;8.648;2023-03-19T14:01:52;7.80;;;3.25;;
51216;SDS011;37283;49.760;8.648;2023-03-19T14:04:21;5.55;;;2.70;;
51216;SDS011;37283;49.760;8.648;2023-03-19T14:06:55;8.32;;;3.90;;
51216;SDS011;37283;49.760;8.648;2023-03-19T14:09:26;6.30;;;2.88;;
51216;SDS011;37283;49.760;8.648;2023-03-19T14:17:36;8.38;;;4.55;;
51216;SDS011;37283;49.760;8.648;2023-03-19T14:22:39;14.88;;;6.45;;
51216;SDS011;37283;49.760;8.648;2023-03-19T14:25:26;6.47;;;3.63;;
51216;SDS011;37283;49.760;8.648;2023-03-19T14:27:54;10.98;;;4.65;;
51216;SDS011;37283;49.760;8.648;2023-03-19T14:30:31;8.68;;;4.10;;
51216;SDS011;37283;49.760;8.648;2023-03-19T14:33:02;18.55;;;7.38;;
51216;SDS011;37283;49.760;8.648;2023-03-19T14:35:38;5.93;;;3.00;;
51216;SDS011;37283;49.760;8.648;2023-03-19T14:38:10;6.80;;;2.90;;
51216;SDS011;37283;49.760;8.648;2023-03-19T14:40:44;3.65;;;2.55;;
51216;SDS011;37283;49.760;8.648;2023-03-19T14:46:32;5.18;;;2.47;;
51216;SDS011;37283;49.760;8.648;2023-03-19T14:49:19;2.80;;;1.80;;
51216;SDS011;37283;49.760;8.648;2023-03-19T14:54:36;3.85;;;1.75;;
51216;SDS011;37283;49.760;8.648;2023-03-19T14:57:07;2.47;;;1.50;;
51216;SDS011;37283;49.760;8.648;2023-03-19T14:59:42;2.80;;;1.40;;
51216;SDS011;37283;49.760;8.648;2023-03-19T15:02:17;1.77;;;1.00;;
51216;SDS011;37283;49.760;8.648;2023-03-19T15:04:53;2.33;;;1.10;;
51216;SDS011;37283;49.760;8.648;2023-03-19T15:07:20;2.35;;;1.05;;
51216;SDS011;37283;49.760;8.648;2023-03-19T15:09:53;2.30;;;1.10;;
51216;SDS011;37283;49.760;8.648;2023-03-19T15:12:28;2.05;;;0.88;;
51216;SDS011;37283;49.760;8.648;2023-03-19T15:17:43;1.85;;;0.90;;
51216;SDS011;37283;49.760;8.648;2023-03-19T15:20:20;1.65;;;0.90;;
51216;SDS011;37283;49.760;8.648;2023-03-19T15:22:59;2.33;;;1.10;;
51216;SDS011;37283;49.760;8.648;2023-03-19T15:25:26;3.58;;;1.38;;
51216;SDS011;37283;49.760;8.648;2023-03-19T15:28:03;1.73;;;0.98;;
51216;SDS011;37283;49.760;8.648;2023-03-19T15:30:30;2.17;;;1.00;;
51216;SDS011;37283;49.760;8.648;2023-03-19T15:32:58;2.53;;;1.00;;
51216;SDS011;37283;49.760;8.648;2023-03-19T15:35:42;1.08;;;0.82;;
51216;SDS011;37283;49.760;8.648;2023-03-19T15:38:09;1.98;;;0.98;;
51216;SDS011;37283;49.760;8.648;2023-03-19T15:40:37;1.70;;;0.98;;
51216;SDS011;37283;49.760;8.648;2023-03-19T15:43:06;1.85;;;0.93;;
51216;SDS011;37283;49.760;8.648;2023-03-19T15:45:36;2.05;;;1.08;;
51216;SDS011;37283;49.760;8.648;2023-03-19T15:48:08;2.33;;;1.15;;
51216;SDS011;37283;49.760;8.648;2023-03-19T15:50:40;2.08;;;1.15;;
51216;SDS011;37283;49.760;8.648;2023-03-19T15:53:09;1.98;;;1.00;;
51216;SDS011;37283;49.760;8.648;2023-03-19T15:55:37;1.60;;;1.00;;
51216;SDS011;37283;49.760;8.648;2023-03-19T15:58:08;1.33;;;0.77;;
51216;SDS011;37283;49.760;8.648;2023-03-19T16:00:37;1.42;;;1.05;;
51216;SDS011;37283;49.760;8.648;2023-03-19T16:03:05;1.33;;;0.88;;
51216;SDS011;37283;49.760;8.648;2023-03-19T16:05:32;0.93;;;0.70;;
51216;SDS011;37283;49.760;8.648;2023-03-19T16:08:00;1.17;;;0.80;;
51216;SDS011;37283;49.760;8.648;2023-03-19T16:10:42;1.70;;;0.90;;
51216;SDS011;37283;49.760;8.648;2023-03-19T16:13:45;0.77;;;0.70;;
51216;SDS011;37283;49.760;8.648;2023-03-19T16:16:05;1.48;;;0.70;;
51216;SDS011;37283;49.760;8.648;2023-03-19T16:18:51;1.10;;;0.60;;
51216;SDS011;37283;49.760;8.648;2023-03-19T16:21:20;1.50;;;0.90;;
51216;SDS011;37283;49.760;8.648;2023-03-19T16:24:00;2.47;;;0.88;;
51216;SDS011;37283;49.760;8.648;2023-03-19T16:26:49;1.30;;;0.80;;
51216;SDS011;37283;49.760;8.648;2023-03-19T16:29:19;2.25;;;1.20;;
51216;SDS011;37283;49.760;8.648;2023-03-19T16:31:52;2.78;;;0.90;;
51216;SDS011;37283;49.760;8.648;2023-03-19T16:34:30;1.92;;;0.93;;
51216;SDS011;37283;49.760;8.648;2023-03-19T16:37:20;2.25;;;1.02;;
51216;SDS011;37283;49.760;8.648;2023-03-19T16:42:37;1.83;;;1.00;;
51216;SDS011;37283;49.760;8.648;2023-03-19T16:50:16;4.32;;;2.50;;
51216;SDS011;37283;49.760;8.648;2023-03-19T16:52:44;2.30;;;1.55;;
51216;SDS011;37283;49.760;8.648;2023-03-19T16:55:25;1.92;;;1.23;;
51216;SDS011;37283;49.760;8.648;2023-03-19T16:57:54;1.50;;;1.10;;
51216;SDS011;37283;49.760;8.648;2023-03-19T17:00:22;2.63;;;1.60;;
51216;SDS011;37283;49.760;8.648;2023-03-19T17:02:50;2.90;;;1.75;;
51216;SDS011;37283;49.760;8.648;2023-03-19T17:05:18;2.97;;;1.77;;
51216;SDS011;37283;49.760;8.648;2023-03-19T17:07:44;2.90;;;1.35;;